Elkhart, IL (62634)

4:33 PM CST on February 14, 2016 (GMT -0600)
NE corner of Freshwater Pond pumphouse | | Change Station
CLOSE
Current Station
Personal Weather Station
Location: Elkhart, IL
Elevation: 570 ft
Nearby Weather Stations
Active Advisory: Winter Weather Advisory Active Notice: Local Storm Report

Elev 570 ft 40.00 °N, 89.46 °W | Updated 2 seconds ago

Overcast
Overcast
21.1 °F
Feels Like 11 °F
N
8.9
Wind Variable Wind from SE
Gusts 8.9 mph

Today
High -- | Low -- °F
--% Chance of Precip.
Yesterday
High -- | Low -- °F
Precip. -- in
Pressure 30.01 in
Visibility 5.0 miles
Clouds Overcast 1000 ft
Windchill 11 °F
Dew Point 18 °F
Humidity 92%
Rainfall 0.00 in
Snow Depth Not available.
6:52 AM 5:32 PM
Waxing Crescent, 46% visible
METAR KAAA 142215Z AUTO 13010KT 5SM BR OVC010 M06/M07 A3001 RMK AO2 T10601072
Pressure 30.01 in
Visibility 5.0 miles
Clouds Overcast 1000 ft
Windchill 11 °F
Dew Point 18 °F
Humidity 92%
Rainfall 0.00 in
Snow Depth Not available.
6:52 AM 5:32 PM
Waxing Crescent, 46% visible
METAR KAAA 142215Z AUTO 13010KT 5SM BR OVC010 M06/M07 A3001 RMK AO2 T10601072

10-Day Weather Forecast

Almanac

Astronomy

Feb. 14, 2016 Rise Set
Actual Time
Civil Twilight
Nautical Twilight
Astronomical Twilight
Moon
Length of Visible Light
Length of Day
Tomorrow will be .
, % of the Moon is Illuminated

Today's Extremes

State Highs State Lows

Community

WunderPhotos

Upload Photos

1,892,899 photos uploaded!

WunderBlog® & News

Nearby

Air Quality

  Air Quality AQ Index Pollutant
Not available.

Snow Depth

Station Depth Elevation

Earthquake Activity

City Distance Mag. Time & Date
Minimum magnitude displayed is 2.5.

Coastal Water Temperatures

Place Temperature

Stations

Nearby Weather Stations

Station Location Temp. Windchill Dew Point Humidity Wind Precip. Elev Updated Type
                   

Watches & Warnings

Winter Weather Advisory
Issued: 3:00 PM CST Feb. 14, 2016 – National Weather Service

... Winter Weather Advisory remains in effect until 6 PM CST this
evening...

* timing... light snow will gradually diminish along and northeast
of a Macomb to Springfield to Lawrenceville line through 6 PM.

* Snow accumulations... 2 to 4 inches of snow fell across the area
through mid afternoon. Less than 1 inch of additional snow will
occur by 6 PM from I-74 north and near the Indiana border.
Patchy freezing drizzle will also be possible late this
afternoon or evening.

* Wind... southeast winds of 10 to 20 mph with gusts of 20 to 25
mph this afternoon will diminish to 5 to 15 mph this evening.

* Main impact... snow-covered roads will create hazardous travel
conditions. Brisk southeasterly winds will cause some blowing
and drifting snow until dusk.

Precautionary/preparedness actions...

A Winter Weather Advisory for snow means that periods of snow
will cause primarily travel difficulties. Be prepared for snow
covered roads and limited visibilities... and use caution while
driving.



07